Ming Yang — HORH — position and weather

sailwx.info

Track history (hours):
 
Tides and Currents Weather Stations Pressure Air Temp Water Temp Dewpoint Dewpoint Depression Visibility Wind Speed Wind Dir Waves Ship Positions

Ming Yang

Last reported at 2018-Apr-22 12:32 UTC. Time now 2018-Apr-23 07:24 UTC.
Position N 33°59' E 129°49'.

Length 80 m; draft 5.6 m.

Type: Cargo ship. MMSI: 356216000.

Date/timePositionNaut miles runAvg speedWind from/ knotsBaromVisibWave heightAir tempDewpointWater temp
2018-Apr-22 12:32N 33°59' E 129°49'3 9.6
2018-Apr-22 12:16N 33°60' E 129°52'3 9.7
2018-Apr-22 11:57N 34°01' E 129°56'4 9.3
2018-Apr-22 11:30N 34°02' E 130°00'5 9.3
2018-Apr-22 11:01N 34°02' E 130°06'5 9.5
2018-Apr-22 10:30N 34°03' E 130°12'5 9.7
2018-Apr-22 10:01N 34°03' E 130°17'5 9.8
2018-Apr-22 09:31N 34°03' E 130°23'5 9.4
2018-Apr-22 09:01N 34°03' E 130°29'5 9.1
2018-Apr-22 08:31N 34°03' E 130°34'5 9.1
2018-Apr-22 08:00N 34°03' E 130°40'5 9.1
2018-Apr-22 07:30N 34°03' E 130°45'4 8.9
2018-Apr-22 07:00N 34°02' E 130°51'4 8.6
2018-Apr-22 06:30N 33°58' E 130°52'4 7.8
2018-Apr-22 06:00N 33°55' E 130°55'510.5
2018-Apr-22 05:30N 33°59' E 130°59'5 9.3
2018-Apr-22 05:01N 33°56' E 131°04'5 9.6
2018-Apr-22 04:31N 33°54' E 131°09'5 9.6
2018-Apr-22 04:01N 33°52' E 131°14'5 9.9
2018-Apr-22 03:30N 33°51' E 131°20'5 9.7
2018-Apr-22 03:00N 33°49' E 131°26'5 9.9
2018-Apr-22 02:31N 33°48' E 131°32'510.0
2018-Apr-22 02:00N 33°47' E 131°37'510.1
2018-Apr-22 01:30N 33°46' E 131°43'510.0
2018-Apr-22 00:59N 33°45' E 131°49'38 9.7
2018-Apr-21 21:05N 33°51' E 132°34'1 9.9
2018-Apr-21 21:00N 33°52' E 132°35'510.3
2018-Apr-21 20:30N 33°56' E 132°39'6 9.9
2018-Apr-21 19:54N 33°60' E 132°44'  
2018-Apr-17 09:50N 34°31' E 134°02'  
2018-Apr-12 19:20N 34°00' E 132°45'3 9.8
2018-Apr-12 18:59N 33°57' E 132°43'12 9.6
2018-Apr-12 17:44N 33°49' E 132°32'6 9.7
2018-Apr-12 17:09N 33°46' E 132°27'16 9.4
2018-Apr-12 15:26N 33°41' E 132°08'4 9.4
2018-Apr-12 15:00N 33°42' E 132°03'5 9.8
2018-Apr-12 14:31N 33°43' E 131°58'510.1
2018-Apr-12 14:01N 33°44' E 131°52'510.3
2018-Apr-12 13:30N 33°45' E 131°46'510.6
2018-Apr-12 13:00N 33°46' E 131°40'  
Track history (hours):
 
Tides and Currents Weather Stations Pressure Air Temp Water Temp Dewpoint Dewpoint Depression Visibility Wind Speed Wind Dir Waves Ship Positions

Ming Yang

Last reported at 2018-Apr-22 12:32 UTC. Time now 2018-Apr-23 07:24 UTC.
Position N 33°59' E 129°49'.

Length 80 m; draft 5.6 m.

Type: Cargo ship. MMSI: 356216000.

Date/timePositionNaut miles runAvg speedWind from/ knotsBaromVisibWave heightAir tempDewpointWater temp
2018-Apr-22 12:32N 33°59' E 129°49'3 9.6
2018-Apr-22 12:16N 33°60' E 129°52'3 9.7
2018-Apr-22 11:57N 34°01' E 129°56'4 9.3
2018-Apr-22 11:30N 34°02' E 130°00'5 9.3
2018-Apr-22 11:01N 34°02' E 130°06'5 9.5
2018-Apr-22 10:30N 34°03' E 130°12'5 9.7
2018-Apr-22 10:01N 34°03' E 130°17'5 9.8
2018-Apr-22 09:31N 34°03' E 130°23'5 9.4
2018-Apr-22 09:01N 34°03' E 130°29'5 9.1
2018-Apr-22 08:31N 34°03' E 130°34'5 9.1
2018-Apr-22 08:00N 34°03' E 130°40'5 9.1
2018-Apr-22 07:30N 34°03' E 130°45'4 8.9
2018-Apr-22 07:00N 34°02' E 130°51'4 8.6
2018-Apr-22 06:30N 33°58' E 130°52'4 7.8
2018-Apr-22 06:00N 33°55' E 130°55'510.5
2018-Apr-22 05:30N 33°59' E 130°59'5 9.3
2018-Apr-22 05:01N 33°56' E 131°04'5 9.6
2018-Apr-22 04:31N 33°54' E 131°09'5 9.6
2018-Apr-22 04:01N 33°52' E 131°14'5 9.9
2018-Apr-22 03:30N 33°51' E 131°20'5 9.7
2018-Apr-22 03:00N 33°49' E 131°26'5 9.9
2018-Apr-22 02:31N 33°48' E 131°32'510.0
2018-Apr-22 02:00N 33°47' E 131°37'510.1
2018-Apr-22 01:30N 33°46' E 131°43'510.0
2018-Apr-22 00:59N 33°45' E 131°49'38 9.7
2018-Apr-21 21:05N 33°51' E 132°34'1 9.9
2018-Apr-21 21:00N 33°52' E 132°35'510.3
2018-Apr-21 20:30N 33°56' E 132°39'6 9.9
2018-Apr-21 19:54N 33°60' E 132°44'  
2018-Apr-17 09:50N 34°31' E 134°02'  
2018-Apr-12 19:20N 34°00' E 132°45'3 9.8
2018-Apr-12 18:59N 33°57' E 132°43'12 9.6
2018-Apr-12 17:44N 33°49' E 132°32'6 9.7
2018-Apr-12 17:09N 33°46' E 132°27'16 9.4
2018-Apr-12 15:26N 33°41' E 132°08'4 9.4
2018-Apr-12 15:00N 33°42' E 132°03'5 9.8
2018-Apr-12 14:31N 33°43' E 131°58'510.1
2018-Apr-12 14:01N 33°44' E 131°52'510.3
2018-Apr-12 13:30N 33°45' E 131°46'510.6
2018-Apr-12 13:00N 33°46' E 131°40'  

Dump ship's entire track history